Time;durP1;ratioP1;P1;durP2;ratioP2;P2;SDS_P1;SDS_P2;PMS_P1;PMS_P2;Temp;Humidity;BMP_temperature;BMP_pressure;BME280_temperature;BME280_humidity;BME280_pressure;Samples;Min_cycle;Max_cycle;Signal;HPM_P1;HPM_P2
2024/03/02 00:01:57;;;;;;;3.83;1.30;;;10.30;99.90;;;;;;7385564;19;20014;-79
2024/03/02 00:04:26;;;;;;;6.07;1.42;;;10.30;99.90;;;;;;7386300;19;20039;-79
2024/03/02 00:06:58;;;;;;;7.68;1.70;;;10.40;99.90;;;;;;7386611;19;20007;-81
2024/03/02 00:09:26;;;;;;;7.22;1.67;;;10.40;99.90;;;;;;7384011;19;20044;-78
2024/03/02 00:11:55;;;;;;;6.45;1.55;;;10.50;99.90;;;;;;7387894;19;22069;-80
2024/03/02 00:14:26;;;;;;;3.90;1.45;;;10.50;99.90;;;;;;7406156;19;20007;-80
2024/03/02 00:17:01;;;;;;;7.20;1.70;;;10.50;99.90;;;;;;7392325;19;20032;-80
2024/03/02 00:19:33;;;;;;;6.53;1.50;;;10.50;99.90;;;;;;7391421;19;20030;-80
2024/03/02 00:22:07;;;;;;;12.70;1.88;;;10.50;99.90;;;;;;7388852;19;20007;-79
2024/03/02 00:24:37;;;;;;;5.70;1.77;;;10.50;99.90;;;;;;7391812;19;20013;-79
2024/03/02 00:27:11;;;;;;;9.93;2.05;;;10.50;99.90;;;;;;7391500;19;20061;-80
2024/03/02 00:29:40;;;;;;;2.95;1.23;;;10.50;99.90;;;;;;7388506;19;20231;-79
2024/03/02 00:32:15;;;;;;;7.03;1.50;;;10.50;99.90;;;;;;7412931;19;20011;-79
2024/03/02 00:34:43;;;;;;;3.75;1.20;;;10.50;99.90;;;;;;7386376;19;20016;-80
2024/03/02 00:37:16;;;;;;;7.22;1.55;;;10.50;99.90;;;;;;7384892;19;20025;-80
2024/03/02 00:39:45;;;;;;;10.52;1.63;;;10.30;99.90;;;;;;7388778;19;20303;-80
2024/03/02 00:42:15;;;;;;;6.80;1.95;;;10.30;99.90;;;;;;7386432;19;20011;-79
2024/03/02 00:44:43;;;;;;;3.88;1.45;;;10.40;99.90;;;;;;7388101;19;20014;-80
2024/03/02 00:47:14;;;;;;;6.25;1.38;;;10.40;99.90;;;;;;7407889;19;20010;-79
2024/03/02 00:49:43;;;;;;;9.55;1.83;;;10.40;99.90;;;;;;7386148;19;20027;-79
2024/03/02 00:52:19;;;;;;;5.30;1.50;;;10.40;99.90;;;;;;7383495;19;20024;-79
2024/03/02 00:54:48;;;;;;;7.88;1.75;;;10.40;99.90;;;;;;7386261;19;20055;-79
2024/03/02 00:57:18;;;;;;;3.90;1.63;;;10.40;99.90;;;;;;7382446;19;20015;-81
2024/03/02 00:59:47;;;;;;;8.02;1.55;;;10.40;99.90;;;;;;7389687;19;20006;-79
2024/03/02 01:02:16;;;;;;;6.10;1.73;;;10.40;99.90;;;;;;7409881;19;20010;-79
2024/03/02 01:04:45;;;;;;;12.18;2.08;;;10.40;99.90;;;;;;7385608;19;19999;-81
2024/03/02 01:07:19;;;;;;;4.50;1.45;;;10.40;99.90;;;;;;7383766;19;20006;-79
2024/03/02 01:09:48;;;;;;;8.48;1.60;;;10.40;99.90;;;;;;7385786;19;20464;-80
2024/03/02 01:12:18;;;;;;;4.95;1.60;;;10.40;99.90;;;;;;7383165;19;20032;-79
2024/03/02 01:14:48;;;;;;;10.97;1.97;;;10.40;99.90;;;;;;7384207;19;20007;-79
2024/03/02 01:17:17;;;;;;;8.50;1.60;;;10.40;99.90;;;;;;7407165;19;20027;-79
2024/03/02 01:19:46;;;;;;;8.07;1.85;;;10.40;99.90;;;;;;7386263;19;20007;-80
2024/03/02 01:22:24;;;;;;;3.22;1.60;;;10.40;99.90;;;;;;7383646;19;20002;-80
2024/03/02 01:24:54;;;;;;;12.18;1.95;;;10.50;99.90;;;;;;7384277;19;20098;-81
2024/03/02 01:27:23;;;;;;;3.55;1.40;;;10.60;99.90;;;;;;7384550;19;20010;-79
2024/03/02 01:29:52;;;;;;;7.30;1.67;;;10.60;99.90;;;;;;7384150;19;20643;-79
2024/03/02 01:32:21;;;;;;;9.55;1.67;;;10.60;99.90;;;;;;7407499;19;20203;-80
2024/03/02 01:34:50;;;;;;;4.40;1.60;;;10.60;99.90;;;;;;7383499;19;20023;-80
2024/03/02 01:37:21;;;;;;;10.45;1.60;;;10.60;99.90;;;;;;7384387;19;20228;-78
2024/03/02 01:39:50;;;;;;;4.53;1.52;;;10.70;99.90;;;;;;7382759;19;20006;-80
2024/03/02 01:42:19;;;;;;;9.40;1.70;;;10.60;99.90;;;;;;7385721;19;20284;-78
2024/03/02 01:44:48;;;;;;;13.80;2.97;;;10.60;99.90;;;;;;7382107;19;20019;-78
2024/03/02 01:47:16;;;;;;;8.02;1.77;;;10.60;99.90;;;;;;7403152;19;20006;-78
2024/03/02 01:49:45;;;;;;;10.30;1.90;;;10.60;99.90;;;;;;7383526;19;20034;-79
2024/03/02 01:52:14;;;;;;;5.93;1.88;;;10.50;99.90;;;;;;7385378;19;20056;-79
2024/03/02 01:54:45;;;;;;;5.07;1.17;;;10.40;99.90;;;;;;7382028;19;20007;-79
2024/03/02 01:57:14;;;;;;;7.30;1.70;;;10.40;99.90;;;;;;7382621;19;20014;-80
2024/03/02 01:59:43;;;;;;;5.72;1.60;;;10.40;99.90;;;;;;7383726;19;20015;-78
2024/03/02 02:02:11;;;;;;;13.25;1.98;;;10.40;99.90;;;;;;7404742;19;20006;-79
2024/03/02 02:04:40;;;;;;;9.30;1.63;;;10.40;99.90;;;;;;7382722;19;20014;-80
2024/03/02 02:07:09;;;;;;;6.50;1.73;;;10.40;99.90;;;;;;7383967;19;20010;-80
2024/03/02 02:09:38;;;;;;;11.07;1.48;;;10.40;99.90;;;;;;7384688;19;20063;-80
2024/03/02 02:12:11;;;;;;;11.15;1.95;;;10.30;99.90;;;;;;7382284;19;20011;-80
2024/03/02 02:14:43;;;;;;;9.40;1.67;;;10.30;99.90;;;;;;7383021;19;20050;-79
2024/03/02 02:17:11;;;;;;;13.23;1.60;;;10.30;99.90;;;;;;7404135;19;20021;-79
2024/03/02 02:19:42;;;;;;;10.52;1.85;;;10.30;99.90;;;;;;7383863;19;20015;-80
2024/03/02 02:22:14;;;;;;;6.72;1.40;;;10.30;99.90;;;;;;7390595;19;20014;-79
2024/03/02 02:24:43;;;;;;;10.50;1.90;;;10.30;99.90;;;;;;7390156;19;20014;-79
2024/03/02 02:27:14;;;;;;;15.40;2.13;;;10.30;99.90;;;;;;7388129;19;20046;-79
2024/03/02 02:29:44;;;;;;;3.95;1.45;;;10.30;99.90;;;;;;7387991;19;20358;-79
2024/03/02 02:32:12;;;;;;;7.80;1.52;;;10.20;99.90;;;;;;7408621;19;20353;-81
2024/03/02 02:34:41;;;;;;;6.50;1.63;;;10.20;99.90;;;;;;7389280;19;20252;-79
2024/03/02 02:37:10;;;;;;;10.15;1.85;;;10.10;99.90;;;;;;7387065;19;20023;-79
2024/03/02 02:39:41;;;;;;;7.38;1.58;;;10.10;99.90;;;;;;7381873;19;20006;-79
2024/03/02 02:42:10;;;;;;;19.98;2.08;;;10.10;99.90;;;;;;7381361;19;20244;-79
2024/03/02 02:44:39;;;;;;;7.75;1.42;;;10.10;99.90;;;;;;7394730;19;20014;-78
2024/03/02 02:47:09;;;;;;;4.05;1.50;;;10.10;99.90;;;;;;7405571;19;20015;-80
2024/03/02 02:49:38;;;;;;;5.90;1.58;;;10.10;99.90;;;;;;7379748;19;20003;-79
2024/03/02 02:52:06;;;;;;;11.45;2.30;;;10.10;99.90;;;;;;7381096;19;20361;-79
2024/03/02 02:54:35;;;;;;;14.10;2.10;;;10.10;99.90;;;;;;7379632;19;19998;-78
2024/03/02 02:57:08;;;;;;;4.55;1.77;;;10.10;99.90;;;;;;7378727;19;20003;-79
2024/03/02 02:59:39;;;;;;;3.78;1.45;;;10.10;99.90;;;;;;7406495;19;20020;-80
2024/03/02 03:02:09;;;;;;;11.85;1.38;;;10.20;99.90;;;;;;7395229;19;20013;-80
2024/03/02 03:04:42;;;;;;;21.02;2.03;;;10.10;99.90;;;;;;7389502;19;20007;-79
2024/03/02 03:07:10;;;;;;;8.50;2.22;;;10.10;99.90;;;;;;7386804;19;20038;-79
2024/03/02 03:09:41;;;;;;;19.25;2.00;;;10.10;99.90;;;;;;7388727;19;20023;-79
2024/03/02 03:12:15;;;;;;;10.73;1.85;;;10.10;99.90;;;;;;7388869;19;20558;-78
2024/03/02 03:14:44;;;;;;;5.03;1.70;;;10.10;99.90;;;;;;7391304;19;20014;-78
2024/03/02 03:17:12;;;;;;;11.38;1.80;;;10.10;99.90;;;;;;7413057;19;20031;-78
2024/03/02 03:19:41;;;;;;;6.10;1.80;;;10.10;99.90;;;;;;7388624;19;20007;-80
2024/03/02 03:22:10;;;;;;;9.00;1.60;;;10.10;99.90;;;;;;7386603;19;20010;-78
2024/03/02 03:24:40;;;;;;;19.45;2.50;;;10.10;99.90;;;;;;7385084;19;20093;-79
2024/03/02 03:27:12;;;;;;;13.52;2.47;;;10.10;99.90;;;;;;7387208;19;20071;-79
2024/03/02 03:29:40;;;;;;;11.98;2.40;;;10.10;99.90;;;;;;7386946;19;20014;-79
2024/03/02 03:32:10;;;;;;;9.02;1.52;;;10.00;99.90;;;;;;7404855;19;20011;-79
2024/03/02 03:34:40;;;;;;;10.07;2.10;;;10.00;99.90;;;;;;7386776;19;20010;-78
2024/03/02 03:37:11;;;;;;;6.45;1.65;;;10.00;99.90;;;;;;7386162;19;20055;-79
2024/03/02 03:39:40;;;;;;;7.30;1.60;;;10.10;99.90;;;;;;7389853;19;20031;-79
2024/03/02 03:42:11;;;;;;;12.00;2.03;;;10.10;99.90;;;;;;7386799;19;20021;-79
2024/03/02 03:44:42;;;;;;;;;;;10.10;99.90;;;;;;7409273;19;20334;-78
2024/03/02 03:47:10;;;;;;;10.77;2.05;;;10.10;99.90;;;;;;7385704;19;20247;-78
2024/03/02 03:49:39;;;;;;;10.55;1.95;;;10.00;99.90;;;;;;7387208;19;20007;-79
2024/03/02 03:52:08;;;;;;;5.20;1.45;;;10.00;99.90;;;;;;7294946;19;20038;-78
2024/03/02 03:54:38;;;;;;;4.28;1.42;;;10.00;99.90;;;;;;7383017;19;20052;-77
2024/03/02 03:57:07;;;;;;;10.00;1.50;;;9.90;99.90;;;;;;7384308;19;20046;-78
2024/03/02 03:59:39;;;;;;;10.63;1.60;;;9.90;99.90;;;;;;7409972;19;20039;-78
2024/03/02 04:02:08;;;;;;;10.75;1.67;;;9.90;99.90;;;;;;7387299;19;20010;-80
2024/03/02 04:04:36;;;;;;;10.13;1.95;;;9.90;99.90;;;;;;7386138;19;20015;-78
2024/03/02 04:07:05;;;;;;;9.30;1.50;;;9.80;99.90;;;;;;7386278;19;20055;-78
2024/03/02 04:09:34;;;;;;;9.13;1.63;;;9.90;99.90;;;;;;7384620;19;20006;-79
2024/03/02 04:12:03;;;;;;;7.07;1.73;;;9.80;99.90;;;;;;7384341;19;20112;-80
2024/03/02 04:14:32;;;;;;;6.50;1.70;;;9.80;99.90;;;;;;7405240;19;20031;-79
2024/03/02 04:17:03;;;;;;;10.30;1.63;;;9.80;99.90;;;;;;7385233;19;20067;-79
2024/03/02 04:19:32;;;;;;;9.70;1.67;;;9.80;99.90;;;;;;7385371;19;20020;-77
2024/03/02 04:22:00;;;;;;;11.48;1.80;;;9.80;99.90;;;;;;7386079;19;19999;-80
2024/03/02 04:24:31;;;;;;;7.03;1.75;;;9.80;99.90;;;;;;7384467;19;20063;-80
2024/03/02 04:26:59;;;;;;;6.18;1.35;;;9.80;99.90;;;;;;7386212;19;20104;-79
2024/03/02 04:29:28;;;;;;;8.43;1.30;;;9.80;99.90;;;;;;7404277;19;20011;-80
2024/03/02 04:31:57;;;;;;;10.50;1.83;;;9.70;99.90;;;;;;7383163;19;20044;-81
2024/03/02 04:34:32;;;;;;;9.43;1.80;;;9.70;99.90;;;;;;7384929;19;20002;-81
2024/03/02 04:37:12;;;;;;;18.00;1.70;;;9.70;99.90;;;;;;7386952;19;20046;-79
2024/03/02 04:39:58;;;;;;;12.30;1.85;;;9.70;99.90;;;;;;7386946;19;20007;-79
2024/03/02 04:42:29;;;;;;;5.57;1.55;;;9.70;99.90;;;;;;7386950;19;20007;-81
2024/03/02 04:45:05;;;;;;;16.65;1.98;;;9.70;99.90;;;;;;7384005;19;20005;-81
2024/03/02 04:48:07;;;;;;;14.13;2.08;;;9.70;99.90;;;;;;7410431;19;20022;-81
2024/03/02 04:50:49;;;;;;;7.95;1.95;;;9.60;99.90;;;;;;7366906;19;20010;-80
2024/03/02 04:53:35;;;;;;;7.30;1.65;;;9.70;99.90;;;;;;7409472;19;20119;-82
2024/03/02 04:56:39;;;;;;;11.98;1.50;;;9.60;99.90;;;;;;7388786;19;20010;-80
2024/03/02 05:00:06;;;;;;;;;;;;;;;;;;;;;
2024/03/02 05:05:57;;;;;;;;;;;;;;;;;;;;;
2024/03/02 05:08:44;;;;;;;;;;;;;;;;;;;;;
2024/03/02 05:14:12;;;;;;;10.80;2.03;;;9.60;99.90;;;;;;7384596;19;20007;-81
2024/03/02 05:16:41;;;;;;;15.75;1.65;;;9.60;99.90;;;;;;7383549;19;20035;-80
2024/03/02 05:19:10;;;;;;;13.07;2.00;;;9.70;99.90;;;;;;7384423;19;20018;-80
2024/03/02 05:21:41;;;;;;;9.52;1.67;;;9.70;99.90;;;;;;7387830;19;20010;-80
2024/03/02 05:24:10;;;;;;;;;;;9.70;99.90;;;;;;7388805;19;20011;-81
2024/03/02 05:26:39;;;;;;;6.43;1.70;;;9.70;99.90;;;;;;7411509;19;20318;-81
2024/03/02 05:29:07;;;;;;;9.68;2.28;;;9.70;99.90;;;;;;7387953;19;20006;-80
2024/03/02 05:31:36;;;;;;;7.05;1.55;;;9.70;99.90;;;;;;7382534;19;20082;-80
2024/03/02 05:34:05;;;;;;;5.63;1.23;;;9.70;99.90;;;;;;7390606;19;20031;-80
2024/03/02 05:36:34;;;;;;;17.98;2.60;;;9.70;99.90;;;;;;7389313;19;20107;-78
2024/03/02 05:39:10;;;;;;;9.88;1.48;;;9.70;99.90;;;;;;7390889;19;20058;-79
2024/03/02 05:41:38;;;;;;;8.70;1.40;;;9.70;99.90;;;;;;7412467;19;20303;-80
2024/03/02 05:44:07;;;;;;;10.57;1.70;;;9.70;99.90;;;;;;7391680;19;20002;-80
2024/03/02 05:46:36;;;;;;;14.73;1.90;;;9.60;99.90;;;;;;7390015;19;20014;-79
2024/03/02 05:49:05;;;;;;;21.95;1.60;;;9.70;99.90;;;;;;7387331;19;20395;-79
2024/03/02 05:51:36;;;;;;;16.48;2.47;;;9.70;99.90;;;;;;7383582;19;20007;-78
2024/03/02 05:54:10;;;;;;;12.85;2.25;;;9.70;99.90;;;;;;7385237;19;20030;-79
2024/03/02 05:56:40;;;;;;;21.35;2.55;;;9.70;99.90;;;;;;7402902;19;20010;-81
2024/03/02 05:59:16;;;;;;;15.25;2.47;;;9.80;99.90;;;;;;7382572;19;20010;-80
2024/03/02 06:01:48;;;;;;;11.15;2.22;;;9.70;99.90;;;;;;7382305;19;20025;-79
2024/03/02 06:04:17;;;;;;;5.07;1.33;;;9.80;99.90;;;;;;7382017;19;20031;-80
2024/03/02 06:06:46;;;;;;;10.45;1.73;;;9.70;99.90;;;;;;7383847;19;20007;-79
2024/03/02 06:09:31;;;;;;;;;;;;;;;;;;;;;
2024/03/02 06:12:05;;;;;;;13.63;1.40;;;9.70;99.90;;;;;;7380581;19;20009;-80
2024/03/02 06:15:00;;;;;;;;;;;;;;;;;;;;;
2024/03/02 06:17:38;;;;;;;7.63;1.42;;;9.90;99.90;;;;;;7380817;19;20822;-80
2024/03/02 06:20:13;;;;;;;10.32;2.38;;;9.90;99.90;;;;;;7381070;19;20018;-80
2024/03/02 06:22:42;;;;;;;14.30;2.47;;;9.80;99.90;;;;;;7381532;19;20462;-80
2024/03/02 06:25:15;;;;;;;10.93;2.20;;;9.90;99.90;;;;;;7382921;19;20251;-80
2024/03/02 06:27:43;;;;;;;7.68;1.70;;;9.90;99.90;;;;;;7384443;19;20238;-80
2024/03/02 06:30:14;;;;;;;11.23;2.10;;;9.90;99.90;;;;;;7383091;19;20006;-79
2024/03/02 06:32:42;;;;;;;10.43;2.05;;;10.00;99.90;;;;;;7403498;19;20054;-79
2024/03/02 06:35:12;;;;;;;8.98;2.30;;;10.00;99.90;;;;;;7379205;19;20062;-80
2024/03/02 06:37:42;;;;;;;12.93;2.28;;;10.00;99.90;;;;;;7380374;19;20030;-80
2024/03/02 06:40:19;;;;;;;8.40;1.73;;;10.10;99.90;;;;;;7382994;19;20290;-80
2024/03/02 06:42:49;;;;;;;11.77;2.05;;;10.00;99.90;;;;;;7385395;19;20011;-81
2024/03/02 06:45:18;;;;;;;18.90;2.42;;;10.00;99.90;;;;;;7382718;19;20263;-80
2024/03/02 06:47:47;;;;;;;23.15;2.40;;;10.00;99.90;;;;;;7406321;19;20021;-80
2024/03/02 06:50:15;;;;;;;12.02;2.42;;;10.00;99.90;;;;;;7382913;19;20353;-79
2024/03/02 06:52:44;;;;;;;15.35;2.08;;;10.00;99.90;;;;;;7377818;19;20575;-79
2024/03/02 06:55:18;;;;;;;13.75;2.30;;;10.10;99.90;;;;;;7379927;19;20239;-80
2024/03/02 06:57:49;;;;;;;3.58;1.65;;;10.00;99.90;;;;;;7379334;19;19999;-79
2024/03/02 07:00:24;;;;;;;8.70;2.08;;;10.10;99.90;;;;;;7382346;19;20003;-81
2024/03/02 07:02:58;;;;;;;5.38;1.80;;;10.10;99.90;;;;;;7383532;19;20011;-80
2024/03/02 07:05:37;;;;;;;19.58;2.20;;;10.10;99.90;;;;;;7399504;19;20006;-81
2024/03/02 07:08:07;;;;;;;18.98;2.10;;;10.10;99.90;;;;;;7380273;19;20010;-80
2024/03/02 07:10:56;;;;;;;7.38;2.22;;;10.20;99.90;;;;;;7379435;19;20011;-80
2024/03/02 07:13:28;;;;;;;23.80;2.30;;;10.20;99.90;;;;;;7379685;19;20005;-81
2024/03/02 07:16:27;;;;;;;10.35;2.03;;;10.20;99.90;;;;;;7379287;19;20003;-80
2024/03/02 07:19:10;;;;;;;15.15;3.08;;;10.20;99.90;;;;;;7381845;19;20018;-81
2024/03/02 07:21:44;;;;;;;16.05;1.38;;;10.30;99.90;;;;;;7355645;19;20003;-81
2024/03/02 07:24:16;;;;;;;10.73;1.88;;;10.30;99.90;;;;;;7384462;19;20266;-80
2024/03/02 07:26:50;;;;;;;8.77;2.10;;;10.40;99.90;;;;;;7403337;19;20025;-81
2024/03/02 07:29:24;;;;;;;8.55;2.47;;;10.40;99.90;;;;;;7382811;19;20007;-82
2024/03/02 07:31:55;;;;;;;10.27;2.55;;;10.30;99.90;;;;;;7381944;19;20011;-81
2024/03/02 07:34:24;;;;;;;8.55;1.85;;;10.40;99.90;;;;;;7383868;19;20017;-80
2024/03/02 07:36:53;;;;;;;6.93;1.65;;;10.40;99.90;;;;;;7383274;19;20002;-81
2024/03/02 07:39:25;;;;;;;15.85;2.22;;;10.50;99.90;;;;;;7386272;19;20006;-80
2024/03/02 07:41:57;;;;;;;12.35;2.30;;;10.60;99.90;;;;;;7377072;19;20014;-80
2024/03/02 07:44:25;;;;;;;;;;;10.50;99.90;;;;;;7401186;19;20010;-81
2024/03/02 07:46:54;;;;;;;6.35;1.70;;;10.60;99.90;;;;;;7383936;19;19918;-80
2024/03/02 07:49:23;;;;;;;14.68;3.05;;;10.60;99.90;;;;;;7385374;19;20006;-80
2024/03/02 07:51:51;;;;;;;9.45;3.03;;;10.70;99.90;;;;;;7385667;19;20007;-80
2024/03/02 07:54:34;;;;;;;7.88;2.50;;;10.70;99.90;;;;;;7386167;19;20035;-82
2024/03/02 07:57:08;;;;;;;16.73;2.33;;;10.80;99.90;;;;;;7388752;19;20013;-81
2024/03/02 07:59:38;;;;;;;15.57;2.40;;;10.90;99.90;;;;;;7406557;19;20021;-81
2024/03/02 08:04:43;;;;;;;12.57;2.03;;;11.00;99.90;;;;;;7339154;19;20037;-81
2024/03/02 08:07:12;;;;;;;11.48;2.30;;;11.00;99.90;;;;;;7407442;19;20011;-81
2024/03/02 08:09:40;;;;;;;14.80;2.22;;;11.00;99.90;;;;;;7389815;19;20010;-80
2024/03/02 08:12:12;;;;;;;23.15;2.30;;;11.00;99.90;;;;;;7388603;19;20384;-79
2024/03/02 08:14:48;;;;;;;;;;;11.00;99.90;;;;;;7409579;19;20023;-80
2024/03/02 08:17:17;;;;;;;8.70;2.50;;;11.00;99.90;;;;;;7390579;19;19907;-80
2024/03/02 08:19:51;;;;;;;10.70;2.22;;;10.90;99.90;;;;;;7388986;19;20006;-81
2024/03/02 08:22:23;;;;;;;24.73;2.90;;;10.90;99.90;;;;;;7388520;19;20003;-81
2024/03/02 08:24:54;;;;;;;11.80;2.30;;;10.90;99.90;;;;;;7364403;19;20002;-81
2024/03/02 08:27:28;;;;;;;7.63;2.10;;;10.90;99.90;;;;;;7384776;19;20024;-80
2024/03/02 08:30:00;;;;;;;13.73;2.30;;;10.90;99.90;;;;;;7382400;19;20029;-79
2024/03/02 08:32:28;;;;;;;6.95;1.98;;;11.00;99.90;;;;;;7408613;19;20235;-81
2024/03/02 08:34:57;;;;;;;9.57;2.13;;;11.00;99.90;;;;;;7386758;19;20007;-79
2024/03/02 08:37:26;;;;;;;11.43;2.53;;;10.90;99.90;;;;;;7382975;19;20393;-80
2024/03/02 08:39:55;;;;;;;14.13;1.88;;;10.90;99.90;;;;;;7383309;19;20071;-81
2024/03/02 08:42:26;;;;;;;12.10;2.10;;;10.80;99.90;;;;;;7384133;19;20002;-79
2024/03/02 08:44:55;;;;;;;14.63;2.58;;;10.60;99.90;;;;;;7383693;19;20027;-80
2024/03/02 08:47:24;;;;;;;12.93;2.88;;;10.60;99.90;;;;;;7404170;19;20035;-79
2024/03/02 08:49:52;;;;;;;10.95;1.85;;;10.70;99.90;;;;;;7384313;19;20031;-81
2024/03/02 08:52:24;;;;;;;13.95;2.40;;;10.70;99.90;;;;;;7382358;19;20009;-80
2024/03/02 08:54:53;;;;;;;8.38;1.90;;;10.70;99.90;;;;;;7384338;19;20023;-79
2024/03/02 08:57:21;;;;;;;11.65;1.90;;;10.80;99.90;;;;;;7387735;19;20014;-80
2024/03/02 08:59:53;;;;;;;10.82;1.55;;;10.80;99.90;;;;;;7406852;19;20006;-79
2024/03/02 09:02:24;;;;;;;;;;;10.80;99.90;;;;;;7390349;19;20027;-82
2024/03/02 09:04:53;;;;;;;14.98;1.95;;;10.80;99.90;;;;;;7389295;19;19907;-78
2024/03/02 09:07:25;;;;;;;11.63;1.85;;;10.80;99.90;;;;;;7388540;19;20011;-82
2024/03/02 09:09:54;;;;;;;10.30;1.83;;;10.90;99.90;;;;;;7382893;19;20020;-76
2024/03/02 09:12:23;;;;;;;14.10;1.67;;;10.90;99.90;;;;;;7384543;19;20006;-78
2024/03/02 09:14:57;;;;;;;10.55;1.95;;;10.90;99.90;;;;;;7389817;19;20369;-79
2024/03/02 09:17:26;;;;;;;8.55;1.80;;;10.90;99.90;;;;;;7410756;19;20325;-77
2024/03/02 09:19:54;;;;;;;11.68;2.05;;;11.00;99.90;;;;;;7386686;19;20326;-78
2024/03/02 09:22:24;;;;;;;7.28;2.13;;;11.00;99.90;;;;;;7383737;19;20061;-78
2024/03/02 09:24:55;;;;;;;8.63;2.35;;;10.90;99.90;;;;;;7382487;19;20007;-77
2024/03/02 09:27:24;;;;;;;;;;;11.00;99.90;;;;;;7383218;19;20066;-77
2024/03/02 09:29:55;;;;;;;6.38;1.65;;;11.00;99.90;;;;;;7404854;19;20154;-78
2024/03/02 09:32:23;;;;;;;;;;;11.00;99.90;;;;;;7381583;19;20432;-77
2024/03/02 09:34:53;;;;;;;7.97;1.80;;;11.00;99.90;;;;;;7384418;19;19914;-78
2024/03/02 09:37:22;;;;;;;8.57;2.20;;;11.00;99.90;;;;;;7381316;19;20009;-77
2024/03/02 09:39:51;;;;;;;7.65;1.92;;;11.00;99.90;;;;;;7380488;19;20020;-79
2024/03/02 09:42:20;;;;;;;7.40;2.60;;;11.10;99.90;;;;;;7381814;19;20015;-79
2024/03/02 09:44:50;;;;;;;9.95;2.45;;;11.10;99.90;;;;;;7403027;19;20015;-78
2024/03/02 09:47:26;;;;;;;13.35;3.05;;;11.20;99.90;;;;;;7384109;19;20014;-78
2024/03/02 09:49:55;;;;;;;13.38;3.08;;;11.20;99.90;;;;;;7384077;19;20002;-77
2024/03/02 09:52:35;;;;;;;8.93;2.92;;;11.20;99.90;;;;;;7384143;19;20023;-79
2024/03/02 09:55:07;;;;;;;10.10;2.80;;;11.30;99.90;;;;;;7380599;19;20385;-79
2024/03/02 09:57:35;;;;;;;;;;;11.30;99.90;;;;;;7384965;19;20070;-78
2024/03/02 10:00:04;;;;;;;6.68;2.40;;;11.30;99.90;;;;;;7383230;19;19914;-79
2024/03/02 10:02:35;;;;;;;7.82;2.20;;;11.40;99.90;;;;;;7407884;19;20010;-80
2024/03/02 10:05:05;;;;;;;10.05;2.53;;;11.40;99.90;;;;;;7386085;19;20020;-81
2024/03/02 10:07:34;;;;;;;8.43;2.72;;;11.40;99.90;;;;;;7387011;19;20281;-82
2024/03/02 10:10:15;;;;;;;7.55;3.40;;;11.40;99.90;;;;;;7385105;19;20027;-80
2024/03/02 10:12:44;;;;;;;;;;;11.50;99.90;;;;;;7389392;19;20024;-80
2024/03/02 10:15:13;;;;;;;7.80;3.10;;;11.50;99.90;;;;;;7387782;19;19915;-79
2024/03/02 10:17:54;;;;;;;6.97;2.88;;;11.50;99.90;;;;;;7408779;19;20003;-81
2024/03/02 10:20:28;;;;;;;14.13;3.25;;;11.50;99.90;;;;;;7382225;19;20280;-78
2024/03/02 10:22:55;;;;;;;16.70;3.10;;;11.50;99.90;;;;;;7380700;19;20011;-77
2024/03/02 10:25:36;;;;;;;7.85;2.70;;;11.50;99.90;;;;;;7381418;19;20007;-82
2024/03/02 10:28:05;;;;;;;8.50;3.08;;;11.60;99.90;;;;;;7385790;19;20083;-81
2024/03/02 10:30:34;;;;;;;8.50;2.63;;;11.60;99.90;;;;;;7382861;19;20252;-80
2024/03/02 10:33:08;;;;;;;10.52;2.22;;;11.50;99.90;;;;;;7381748;19;20038;-79
2024/03/02 10:35:39;;;;;;;8.32;2.35;;;11.60;99.90;;;;;;7400605;19;20370;-81
2024/03/02 10:38:08;;;;;;;12.20;2.90;;;11.60;99.90;;;;;;7377385;19;20010;-81
2024/03/02 10:40:37;;;;;;;5.25;2.10;;;11.60;99.90;;;;;;7376844;19;20003;-80
2024/03/02 10:43:07;;;;;;;5.68;2.17;;;11.50;99.90;;;;;;7376930;19;20007;-79
2024/03/02 10:45:36;;;;;;;4.80;1.90;;;11.60;99.90;;;;;;7378149;19;20002;-80
2024/03/02 10:48:10;;;;;;;10.30;1.77;;;11.70;99.90;;;;;;7380927;19;20028;-81
2024/03/02 10:50:38;;;;;;;6.90;1.45;;;11.60;99.90;;;;;;7402849;19;20223;-82
2024/03/02 10:53:07;;;;;;;3.17;1.63;;;11.70;99.90;;;;;;7383368;19;20084;-81
2024/03/02 10:55:36;;;;;;;7.90;1.77;;;11.70;99.90;;;;;;7384392;19;20361;-79
2024/03/02 10:58:07;;;;;;;1.60;1.33;;;11.70;99.90;;;;;;7385273;19;20096;-81
2024/03/02 11:00:38;;;;;;;3.95;1.50;;;11.70;99.90;;;;;;7382401;19;20002;-81
2024/03/02 11:03:11;;;;;;;1.77;1.30;;;11.70;99.90;;;;;;7382151;19;20034;-81
2024/03/02 11:05:47;;;;;;;3.25;1.17;;;11.70;99.90;;;;;;7405825;19;20018;-83
2024/03/02 11:08:19;;;;;;;2.70;0.77;;;11.70;99.90;;;;;;7383089;19;20065;-81
2024/03/02 11:10:53;;;;;;;2.20;0.88;;;11.20;99.90;;;;;;7380783;19;20010;-82
2024/03/02 11:13:28;;;;;;;0.90;0.65;;;11.00;99.90;;;;;;7378731;19;20043;-83
2024/03/02 11:16:02;;;;;;;7.32;0.70;;;11.00;99.90;;;;;;7380433;19;20231;-81
2024/03/02 11:18:34;;;;;;;1.85;0.63;;;11.10;99.90;;;;;;7379480;19;20274;-82
2024/03/02 11:21:04;;;;;;;2.00;1.00;;;11.30;99.90;;;;;;7386023;19;20026;-82
2024/03/02 11:23:37;;;;;;;1.63;0.77;;;11.40;99.90;;;;;;7407914;19;20024;-81
2024/03/02 11:26:20;;;;;;;2.00;0.77;;;11.40;99.90;;;;;;7394166;19;20007;-82
2024/03/02 11:28:50;;;;;;;2.38;0.65;;;11.60;99.90;;;;;;7388022;19;20016;-82
2024/03/02 11:31:22;;;;;;;2.33;0.80;;;11.60;99.90;;;;;;7386727;19;20024;-81
2024/03/02 11:33:53;;;;;;;5.13;0.85;;;11.70;99.90;;;;;;7386026;19;20026;-81
2024/03/02 11:36:22;;;;;;;3.42;0.90;;;11.80;99.90;;;;;;7386153;19;20010;-81
2024/03/02 11:38:53;;;;;;;1.55;0.70;;;11.90;99.90;;;;;;7410204;19;20018;-83
2024/03/02 11:41:22;;;;;;;1.17;0.80;;;11.90;99.90;;;;;;7386990;19;20013;-82
2024/03/02 11:43:51;;;;;;;4.32;0.95;;;12.00;99.90;;;;;;7388332;19;20011;-83
2024/03/02 11:46:19;;;;;;;1.95;0.82;;;12.00;99.90;;;;;;7389906;19;20319;-82
2024/03/02 11:48:50;;;;;;;1.40;0.75;;;11.90;99.90;;;;;;7390741;19;20018;-82
2024/03/02 11:51:33;;;;;;;0.60;0.52;;;12.00;99.90;;;;;;7390788;19;20019;-82
2024/03/02 11:54:11;;;;;;;2.20;0.85;;;12.00;99.90;;;;;;7396034;19;20007;-84
2024/03/02 11:56:51;;;;;;;0.93;0.50;;;11.90;99.90;;;;;;7411454;19;20026;-82
2024/03/02 11:59:22;;;;;;;0.73;0.73;;;12.00;99.90;;;;;;7389478;19;20090;-83
2024/03/02 12:02:06;;;;;;;1.35;0.70;;;12.10;99.90;;;;;;7388938;19;20010;-84
2024/03/02 12:04:37;;;;;;;2.75;0.77;;;12.20;99.90;;;;;;7387110;19;20017;-81
2024/03/02 12:07:10;;;;;;;2.88;0.70;;;12.20;99.90;;;;;;7386672;19;20123;-82
2024/03/02 12:09:48;;;;;;;1.40;0.70;;;12.20;99.90;;;;;;7385584;19;20010;-82
2024/03/02 12:12:20;;;;;;;4.18;0.90;;;11.80;99.90;;;;;;7383900;19;20007;-81
2024/03/02 12:14:55;;;;;;;1.15;0.80;;;11.90;99.90;;;;;;7404897;19;20006;-82
2024/03/02 12:17:24;;;;;;;1.58;0.98;;;12.00;99.90;;;;;;7385710;19;20075;-82
2024/03/02 12:19:53;;;;;;;2.38;0.98;;;12.00;99.90;;;;;;7389705;19;20003;-82
2024/03/02 12:22:25;;;;;;;2.25;1.08;;;12.00;99.90;;;;;;7384845;19;20020;-82
2024/03/02 12:24:53;;;;;;;;;;;12.00;99.90;;;;;;7384507;19;20003;-83
2024/03/02 12:27:22;;;;;;;1.80;0.95;;;12.10;99.90;;;;;;7384749;19;19935;-83
2024/03/02 12:29:51;;;;;;;0.93;0.80;;;12.10;99.90;;;;;;7404693;19;20357;-83
2024/03/02 12:32:22;;;;;;;1.30;0.70;;;12.20;99.90;;;;;;7384302;19;20027;-82
2024/03/02 12:34:53;;;;;;;2.03;0.50;;;12.00;99.90;;;;;;7385982;19;20247;-82
2024/03/02 12:37:33;;;;;;;2.40;0.82;;;12.00;99.90;;;;;;7387188;19;20070;-82
2024/03/02 12:40:02;;;;;;;0.80;0.60;;;12.10;99.90;;;;;;7386882;19;20230;-82
2024/03/02 12:42:31;;;;;;;1.30;0.70;;;11.90;99.90;;;;;;7388645;19;20019;-82
2024/03/02 12:45:00;;;;;;;3.25;0.77;;;11.90;99.90;;;;;;7409617;19;20006;-80
2024/03/02 12:47:29;;;;;;;1.50;1.10;;;11.60;99.90;;;;;;7389883;19;20011;-82
2024/03/02 12:49:59;;;;;;;0.95;0.60;;;11.80;99.90;;;;;;7385517;19;20047;-82
2024/03/02 12:52:32;;;;;;;0.82;0.75;;;11.90;99.90;;;;;;7386306;19;20086;-81
2024/03/02 12:55:03;;;;;;;0.95;0.60;;;12.00;99.90;;;;;;7387415;19;20006;-84
2024/03/02 12:57:32;;;;;;;4.25;0.88;;;12.10;99.90;;;;;;7386848;19;20010;-82
2024/03/02 13:00:08;;;;;;;1.55;0.70;;;12.20;99.90;;;;;;7409194;19;20377;-82
2024/03/02 13:02:43;;;;;;;1.00;0.52;;;12.00;99.90;;;;;;7391605;19;20006;-82
2024/03/02 13:05:13;;;;;;;1.13;0.80;;;12.00;99.90;;;;;;7387884;19;20017;-82
2024/03/02 13:07:45;;;;;;;1.77;0.73;;;12.10;99.90;;;;;;7390137;19;20006;-82
2024/03/02 13:10:18;;;;;;;0.70;0.70;;;12.10;99.90;;;;;;7389122;19;20002;-82
2024/03/02 13:12:47;;;;;;;1.23;0.70;;;12.10;99.90;;;;;;7392369;19;20007;-82
2024/03/02 13:15:17;;;;;;;3.13;0.70;;;12.10;99.90;;;;;;7393580;19;20003;-83
2024/03/02 13:17:49;;;;;;;1.48;0.90;;;12.10;99.90;;;;;;7416858;19;20018;-81
2024/03/02 13:20:19;;;;;;;2.30;1.20;;;12.00;99.90;;;;;;7396926;19;20006;-82
2024/03/02 13:22:50;;;;;;;1.10;0.90;;;12.00;99.90;;;;;;7386830;19;20016;-82
2024/03/02 13:25:21;;;;;;;7.43;1.30;;;12.10;99.90;;;;;;7384827;19;20089;-82